Time;durP1;ratioP1;P1;durP2;ratioP2;P2;SDS_P1;SDS_P2;PMS_P1;PMS_P2;Temp;Humidity;BMP_temperature;BMP_pressure;BME280_temperature;BME280_humidity;BME280_pressure;Samples;Min_cycle;Max_cycle;Signal;HPM_P1;HPM_P2
2022/02/01 00:02:12;;;;;;;86.82;21.40;;;4.30;99.90;;;;;;4926116;29;20190;-88
2022/02/01 00:05:05;;;;;;;75.60;25.50;;;4.20;99.90;;;;;;4924294;29;20197;-87
2022/02/01 00:10:12;;;;;;;75.07;23.17;;;4.20;99.90;;;;;;4924337;29;20181;-88
2022/02/01 00:12:57;;;;;;;81.70;21.35;;;4.10;99.90;;;;;;4924325;29;20503;-88
2022/02/01 00:38:23;;;;;;;87.15;20.48;;;4.00;99.90;;;;;;4925385;29;20157;-87
2022/02/01 00:41:03;;;;;;;82.07;22.40;;;4.00;99.90;;;;;;4924803;29;20200;-88
2022/02/01 00:43:33;;;;;;;74.68;19.15;;;3.90;99.90;;;;;;4925818;29;20180;-88
2022/02/01 00:46:22;;;;;;;80.72;20.92;;;3.90;99.90;;;;;;4924334;29;20678;-88
2022/02/01 00:49:03;;;;;;;78.22;16.10;;;3.80;99.90;;;;;;4926445;29;20153;-88
2022/02/01 00:51:33;;;;;;;75.65;18.52;;;3.80;99.90;;;;;;4926085;29;20204;-87
2022/02/01 00:54:01;;;;;;;79.63;21.80;;;3.80;99.90;;;;;;4923691;29;20205;-88
2022/02/01 00:56:31;;;;;;;78.90;24.20;;;3.70;99.90;;;;;;4924178;29;20196;-87
2022/02/01 00:58:59;;;;;;;83.07;25.50;;;3.70;99.90;;;;;;4926509;29;20180;-87
2022/02/01 01:01:25;;;;;;;83.65;22.15;;;3.70;99.90;;;;;;4924360;29;20165;-87
2022/02/01 01:03:57;;;;;;;79.40;21.33;;;3.70;99.90;;;;;;4926362;29;20262;-89
2022/02/01 01:06:41;;;;;;;90.45;37.33;;;3.80;99.90;;;;;;4926029;29;20453;-89
2022/02/01 01:09:10;;;;;;;83.05;42.15;;;3.70;99.90;;;;;;4925788;29;20161;-87
2022/02/01 01:11:38;;;;;;;84.75;27.42;;;3.70;99.90;;;;;;4924478;29;20181;-88
2022/02/01 01:44:31;;;;;;;80.15;40.03;;;3.80;99.90;;;;;;4925547;29;20518;-88
2022/02/01 01:55:18;;;;;;;79.07;29.85;;;3.80;99.90;;;;;;4926886;29;20223;-88
2022/02/01 01:57:45;;;;;;;82.55;34.70;;;3.80;99.90;;;;;;4928447;29;20169;-88
2022/02/01 02:00:39;;;;;;;92.20;46.42;;;3.80;99.90;;;;;;4928374;29;20177;-88
2022/02/01 02:03:08;;;;;;;82.32;28.23;;;3.80;99.90;;;;;;4928707;29;20177;-88
2022/02/01 02:05:33;;;;;;;79.53;30.20;;;3.80;99.90;;;;;;4930678;29;20253;-88
2022/02/01 02:08:14;;;;;;;93.30;54.80;;;3.90;99.90;;;;;;4928500;29;20204;-87
2022/02/01 02:10:58;;;;;;;82.72;38.90;;;3.80;99.90;;;;;;4928483;29;20189;-87
2022/02/01 02:16:17;;;;;;;82.85;29.13;;;3.90;99.90;;;;;;4928185;29;20189;-88
2022/02/01 02:18:42;;;;;;;80.15;29.98;;;3.90;99.90;;;;;;4929058;29;20200;-88
2022/02/01 02:21:08;;;;;;;82.65;31.55;;;3.80;99.90;;;;;;4929780;29;20185;-87
2022/02/01 02:23:34;;;;;;;76.87;30.07;;;3.80;99.90;;;;;;4929560;29;20240;-88
2022/02/01 02:26:04;;;;;;;77.47;23.97;;;3.90;99.90;;;;;;4929940;29;20248;-88
2022/02/01 02:28:33;;;;;;;81.90;32.75;;;3.90;99.90;;;;;;4928344;29;20249;-87
2022/02/01 02:31:01;;;;;;;84.22;41.78;;;3.80;99.90;;;;;;4927942;29;20193;-87
2022/02/01 02:33:31;;;;;;;79.05;31.63;;;3.80;99.90;;;;;;4928359;29;20161;-88
2022/02/01 02:36:13;;;;;;;79.90;29.80;;;3.80;99.90;;;;;;4928778;29;20200;-88
2022/02/01 02:38:44;;;;;;;81.97;27.15;;;3.80;99.90;;;;;;4928763;29;20227;-87
2022/02/01 02:46:28;;;;;;;99.35;65.65;;;3.80;99.90;;;;;;4928366;29;20196;-88
2022/02/01 02:48:54;;;;;;;86.57;27.33;;;3.80;99.90;;;;;;4928623;29;20240;-88
2022/02/01 02:51:20;;;;;;;85.67;46.83;;;3.80;99.90;;;;;;4928255;29;20177;-88
2022/02/01 02:53:48;;;;;;;82.63;35.25;;;3.70;99.90;;;;;;4928130;29;20405;-88
2022/02/01 02:56:14;;;;;;;85.10;35.75;;;3.80;99.90;;;;;;4927109;29;20182;-88
2022/02/01 02:58:40;;;;;;;82.70;29.35;;;3.80;99.90;;;;;;4928749;29;20629;-88
2022/02/01 03:01:06;;;;;;;75.10;24.33;;;3.80;99.90;;;;;;4927015;29;20179;-88
2022/02/01 03:03:34;;;;;;;89.23;36.63;;;3.80;99.90;;;;;;4926731;29;20181;-88
2022/02/01 03:06:05;;;;;;;80.85;25.02;;;3.80;99.90;;;;;;4927613;29;20439;-88
2022/02/01 03:08:31;;;;;;;79.20;27.10;;;3.80;99.90;;;;;;4928008;29;20682;-88
2022/02/01 03:11:15;;;;;;;76.97;28.07;;;3.80;99.90;;;;;;4926936;29;20165;-88
2022/02/01 03:13:46;;;;;;;78.30;30.48;;;3.80;99.90;;;;;;4926700;29;20696;-88
2022/02/01 03:16:28;;;;;;;84.47;29.55;;;3.80;99.90;;;;;;4928368;29;20185;-88
2022/02/01 03:21:42;;;;;;;79.90;29.63;;;3.80;99.90;;;;;;4927550;29;20185;-87
2022/02/01 03:24:07;;;;;;;89.55;35.38;;;3.80;99.90;;;;;;4926739;29;20641;-88
2022/02/01 03:26:36;;;;;;;81.27;41.67;;;3.80;99.90;;;;;;4927537;29;20196;-89
2022/02/01 03:29:03;;;;;;;84.00;32.92;;;3.80;99.90;;;;;;4927040;29;20165;-88
2022/02/01 03:31:28;;;;;;;91.40;31.63;;;3.80;99.90;;;;;;4924780;29;20180;-88
2022/02/01 03:33:57;;;;;;;81.87;31.73;;;3.90;99.90;;;;;;4926393;29;20721;-88
2022/02/01 03:36:22;;;;;;;79.80;30.75;;;3.90;99.90;;;;;;4925368;29;20185;-87
2022/02/01 03:38:48;;;;;;;79.80;30.73;;;3.90;99.90;;;;;;4925467;29;20169;-88
2022/02/01 03:41:14;;;;;;;83.40;32.63;;;3.90;99.90;;;;;;4924447;29;20229;-87
2022/02/01 03:43:40;;;;;;;80.17;26.50;;;3.90;99.90;;;;;;4924527;29;20161;-87
2022/02/01 03:46:06;;;;;;;79.67;28.57;;;3.80;99.90;;;;;;4923677;29;20672;-87
2022/02/01 03:48:31;;;;;;;82.22;25.85;;;3.90;99.90;;;;;;4924475;29;20185;-88
2022/02/01 03:50:57;;;;;;;79.03;19.20;;;4.00;99.90;;;;;;4923262;29;20181;-88
2022/02/01 03:53:23;;;;;;;76.17;24.53;;;3.90;99.90;;;;;;4925642;29;20253;-88
2022/02/01 03:55:48;;;;;;;87.47;30.17;;;3.90;99.90;;;;;;4925853;29;20208;-88
2022/02/01 03:58:14;;;;;;;76.93;25.87;;;3.90;99.90;;;;;;4926222;29;20170;-89
2022/02/01 04:00:39;;;;;;;76.07;25.20;;;3.90;99.90;;;;;;4926139;29;20170;-88
2022/02/01 04:03:05;;;;;;;80.07;26.20;;;3.90;99.90;;;;;;4925914;29;20169;-88
2022/02/01 04:05:31;;;;;;;76.70;26.60;;;3.80;99.90;;;;;;4924247;29;20274;-88
2022/02/01 04:07:57;;;;;;;81.25;30.00;;;3.90;99.90;;;;;;4925028;29;20170;-88
2022/02/01 04:10:23;;;;;;;83.70;30.13;;;3.80;99.90;;;;;;4925077;29;20177;-89
2022/02/01 04:12:50;;;;;;;88.20;32.00;;;3.80;99.90;;;;;;4923726;29;20188;-88
2022/02/01 04:15:20;;;;;;;86.47;32.42;;;3.80;99.90;;;;;;4923531;29;20233;-87
2022/02/01 04:17:46;;;;;;;91.50;25.70;;;3.80;99.90;;;;;;4923230;29;20173;-88
2022/02/01 04:20:12;;;;;;;83.93;25.60;;;3.90;99.90;;;;;;4923832;29;20169;-88
2022/02/01 04:22:41;;;;;;;82.37;34.27;;;3.90;99.90;;;;;;4923999;29;20180;-88
2022/02/01 04:25:07;;;;;;;86.32;35.95;;;3.90;99.90;;;;;;4926010;29;20449;-88
2022/02/01 04:27:33;;;;;;;77.93;36.13;;;3.90;99.90;;;;;;4924991;29;20177;-88
2022/02/01 04:30:12;;;;;;;82.03;31.47;;;3.90;99.90;;;;;;4923586;29;20228;-87
2022/02/01 04:32:40;;;;;;;74.03;23.17;;;3.90;99.90;;;;;;4924605;29;20146;-88
2022/02/01 04:35:12;;;;;;;87.80;27.23;;;4.00;99.90;;;;;;4924679;29;20205;-87
2022/02/01 04:37:39;;;;;;;76.38;26.15;;;3.90;99.90;;;;;;4922907;29;20169;-88
2022/02/01 04:40:11;;;;;;;80.35;28.23;;;3.90;99.90;;;;;;4922715;29;20581;-87
2022/02/01 04:42:39;;;;;;;79.68;30.48;;;3.90;99.90;;;;;;4923826;29;20653;-88
2022/02/01 04:45:07;;;;;;;80.60;30.77;;;3.90;99.90;;;;;;4922418;29;20197;-87
2022/02/01 04:47:36;;;;;;;80.70;26.15;;;3.90;99.90;;;;;;4924344;29;20252;-88
2022/02/01 04:50:13;;;;;;;84.22;25.25;;;3.90;99.90;;;;;;4923562;29;20165;-88
2022/02/01 04:52:44;;;;;;;77.30;23.40;;;3.90;99.90;;;;;;4923858;29;20641;-87
2022/02/01 04:55:14;;;;;;;73.82;20.88;;;3.90;99.90;;;;;;4923451;29;20252;-87
2022/02/01 04:57:55;;;;;;;76.38;21.60;;;3.90;99.90;;;;;;4921846;29;20178;-89
2022/02/01 05:00:26;;;;;;;79.95;24.23;;;3.90;99.90;;;;;;4922219;29;20165;-88
2022/02/01 05:02:58;;;;;;;84.78;43.13;;;3.90;99.90;;;;;;4922925;29;20165;-88
2022/02/01 05:05:33;;;;;;;87.88;33.50;;;3.90;99.90;;;;;;4923084;29;20280;-88
2022/02/01 05:08:09;;;;;;;82.65;31.92;;;3.90;99.90;;;;;;4923104;29;20649;-88
2022/02/01 05:10:38;;;;;;;79.53;38.72;;;3.90;99.90;;;;;;4923198;29;20613;-87
2022/02/01 05:16:30;;;;;;;80.25;33.50;;;3.90;99.90;;;;;;4923091;29;20205;-86
2022/02/01 05:18:50;;;;;;;78.90;31.58;;;4.00;99.90;;;;;;4921496;29;20224;-88
2022/02/01 05:21:25;;;;;;;89.00;41.50;;;4.00;99.90;;;;;;4921947;29;20169;-88
2022/02/01 05:23:52;;;;;;;84.32;43.88;;;4.00;99.90;;;;;;4922722;29;20141;-88
2022/02/01 05:26:21;;;;;;;83.53;36.65;;;4.00;99.90;;;;;;4922152;29;20688;-86
2022/02/01 05:29:03;;;;;;;78.93;30.58;;;4.00;99.90;;;;;;4919208;29;20192;-86
2022/02/01 05:31:29;;;;;;;80.97;30.33;;;4.10;99.90;;;;;;4918123;29;20181;-86
2022/02/01 05:33:55;;;;;;;80.67;32.80;;;4.10;99.90;;;;;;4920585;29;20221;-86
2022/02/01 05:36:21;;;;;;;73.25;20.45;;;4.10;99.90;;;;;;4920682;29;20460;-86
2022/02/01 05:39:13;;;;;;;84.20;30.03;;;4.10;99.90;;;;;;4922381;29;20176;-86
2022/02/01 05:41:45;;;;;;;84.93;26.65;;;4.10;99.90;;;;;;4910895;29;20208;-86
2022/02/01 05:44:14;;;;;;;81.47;23.95;;;4.10;99.90;;;;;;4920380;29;20172;-87
2022/02/01 05:46:55;;;;;;;76.63;20.58;;;4.10;99.90;;;;;;4921773;29;20177;-86
2022/02/01 05:49:23;;;;;;;74.75;22.98;;;4.10;99.90;;;;;;4922391;29;20162;-86
2022/02/01 05:51:50;;;;;;;76.63;17.98;;;4.20;99.90;;;;;;4921510;29;20193;-87
2022/02/01 05:57:44;;;;;;;88.00;16.40;;;4.10;99.90;;;;;;4863856;29;20750;-87
2022/02/01 06:00:21;;;;;;;74.60;15.80;;;4.10;99.90;;;;;;4863458;29;20214;-87
2022/02/01 06:02:50;;;;;;;81.07;19.92;;;4.00;99.90;;;;;;4863775;29;20214;-88
2022/02/01 06:05:16;;;;;;;78.05;17.40;;;4.00;99.90;;;;;;4877138;29;20197;-88
2022/02/01 06:07:45;;;;;;;74.70;16.15;;;4.00;99.90;;;;;;4921823;29;20200;-88
2022/02/01 06:10:20;;;;;;;75.07;16.92;;;4.10;99.90;;;;;;4922390;29;20316;-87
2022/02/01 06:12:52;;;;;;;75.57;16.15;;;4.10;99.90;;;;;;4921675;29;20168;-88
2022/02/01 06:15:38;;;;;;;;;;;;;;;;;;;;;
2022/02/01 06:18:10;;;;;;;73.55;19.95;;;4.10;99.90;;;;;;4922210;29;20252;-88
2022/02/01 06:20:42;;;;;;;76.25;18.40;;;4.00;99.90;;;;;;4921535;29;20141;-87
2022/02/01 06:23:40;;;;;;;76.00;19.80;;;3.90;99.90;;;;;;4919592;29;20181;-87
2022/02/01 06:26:08;;;;;;;75.22;19.10;;;3.90;99.90;;;;;;4920605;29;20541;-87
2022/02/01 06:28:40;;;;;;;83.97;24.50;;;3.90;99.90;;;;;;4919439;29;20213;-87
2022/02/01 06:31:33;;;;;;;77.28;20.63;;;4.00;99.90;;;;;;4919736;29;20188;-87
2022/02/01 06:34:32;;;;;;;75.78;21.42;;;4.10;99.90;;;;;;4920232;29;20205;-87
2022/02/01 06:37:28;;;;;;;78.50;20.85;;;4.00;99.90;;;;;;4918290;29;20188;-87
2022/02/01 06:40:24;;;;;;;82.78;18.08;;;4.00;99.90;;;;;;4919959;29;20169;-88
2022/02/01 06:43:19;;;;;;;74.03;19.02;;;4.00;99.90;;;;;;4922355;29;20169;-88
2022/02/01 06:50:20;;;;;;;73.28;13.18;;;4.00;99.90;;;;;;4837400;29;20629;-88
2022/02/01 06:53:15;;;;;;;71.05;17.17;;;4.00;99.90;;;;;;4849347;29;20197;-87
2022/02/01 06:59:14;;;;;;;76.15;28.90;;;4.10;99.90;;;;;;5116464;27;20346;-85
2022/02/01 07:01:40;;;;;;;76.95;22.38;;;4.10;99.90;;;;;;5096369;28;20159;-86
2022/02/01 07:04:06;;;;;;;79.63;23.37;;;4.10;99.90;;;;;;5097093;28;20159;-86
2022/02/01 07:06:34;;;;;;;78.50;27.70;;;4.00;99.90;;;;;;5077547;28;20187;-86
2022/02/01 07:09:01;;;;;;;75.47;25.63;;;4.10;99.90;;;;;;5077108;28;20523;-85
2022/02/01 07:11:27;;;;;;;80.25;24.98;;;4.20;99.90;;;;;;5077708;28;20181;-86
2022/02/01 07:13:53;;;;;;;74.00;21.13;;;4.20;99.90;;;;;;5076665;28;20250;-86
2022/02/01 07:16:19;;;;;;;78.73;28.77;;;4.20;99.90;;;;;;5076474;28;20556;-86
2022/02/01 07:18:45;;;;;;;80.55;26.55;;;4.10;99.90;;;;;;5076655;28;20217;-85
2022/02/01 07:21:12;;;;;;;83.57;29.77;;;4.10;99.90;;;;;;5076776;28;20188;-85
2022/02/01 07:23:39;;;;;;;83.63;26.30;;;4.20;99.90;;;;;;5075251;28;20160;-86
2022/02/01 07:26:06;;;;;;;82.93;24.35;;;4.20;99.90;;;;;;5077046;28;20187;-86
2022/02/01 07:28:34;;;;;;;76.75;27.48;;;4.30;99.90;;;;;;5075833;28;20172;-85
2022/02/01 07:31:01;;;;;;;90.82;28.00;;;4.20;99.90;;;;;;5074596;28;20181;-87
2022/02/01 07:33:28;;;;;;;87.13;28.85;;;4.20;99.90;;;;;;5076476;28;20168;-88
2022/02/01 07:35:55;;;;;;;83.55;24.77;;;4.20;99.90;;;;;;5076485;28;20180;-88
2022/02/01 07:38:25;;;;;;;77.65;24.95;;;4.40;99.90;;;;;;5075403;28;20222;-88
2022/02/01 07:40:53;;;;;;;83.50;29.95;;;4.40;99.90;;;;;;5075499;28;20160;-88
2022/02/01 07:43:25;;;;;;;78.10;22.60;;;4.40;99.90;;;;;;5075510;28;20152;-87
2022/02/01 07:45:54;;;;;;;74.50;26.13;;;4.40;99.90;;;;;;5075004;28;20176;-88
2022/02/01 07:48:23;;;;;;;83.88;32.63;;;4.40;99.90;;;;;;5075701;28;20532;-87
2022/02/01 07:50:54;;;;;;;78.25;26.98;;;4.50;99.90;;;;;;5109067;22;20746;-85
2022/02/01 07:53:25;;;;;;;83.80;27.48;;;4.50;99.90;;;;;;5108864;28;20182;-85
2022/02/01 07:56:01;;;;;;;;;;;;;;;;;;;;;
2022/02/01 07:58:51;;;;;;;80.35;24.55;;;4.60;99.90;;;;;;5110947;28;20177;-85
2022/02/01 08:01:20;;;;;;;79.05;21.45;;;4.60;99.90;;;;;;5109761;28;20556;-85
2022/02/01 08:03:46;;;;;;;83.22;29.50;;;4.60;99.90;;;;;;5108641;28;20254;-86
2022/02/01 08:06:12;;;;;;;80.53;31.03;;;4.60;99.90;;;;;;5109835;28;20206;-86
2022/02/01 08:08:38;;;;;;;82.47;26.58;;;4.60;99.90;;;;;;5103525;28;20167;-86
2022/02/01 08:11:14;;;;;;;79.37;29.53;;;4.60;99.90;;;;;;5095223;28;20635;-86
2022/02/01 08:14:34;;;;;;;80.50;28.83;;;4.70;99.90;;;;;;5096999;28;20752;-86
2022/02/01 08:19:15;;;;;;;79.70;28.13;;;4.70;99.90;;;;;;5096518;28;20601;-87
2022/02/01 08:21:46;;;;;;;80.70;26.67;;;4.70;99.90;;;;;;5094715;28;20193;-87
2022/02/01 08:24:12;;;;;;;84.72;34.20;;;4.70;99.90;;;;;;5095500;28;20163;-87
2022/02/01 08:26:38;;;;;;;80.50;27.97;;;4.70;99.90;;;;;;5094649;28;20163;-88
2022/02/01 08:29:05;;;;;;;82.43;29.70;;;4.80;99.90;;;;;;5094564;28;20415;-87
2022/02/01 08:31:33;;;;;;;78.28;24.58;;;4.80;99.90;;;;;;5095635;28;20405;-87
2022/02/01 08:33:59;;;;;;;84.82;30.92;;;4.80;99.90;;;;;;5094314;28;20246;-87
2022/02/01 08:36:25;;;;;;;85.60;24.07;;;4.80;99.90;;;;;;5095881;28;20206;-87
2022/02/01 08:38:51;;;;;;;88.20;23.87;;;4.80;99.90;;;;;;5094397;28;20163;-88
2022/02/01 08:41:17;;;;;;;79.83;23.80;;;4.90;99.90;;;;;;5095867;28;20167;-88
2022/02/01 08:43:45;;;;;;;78.75;31.30;;;4.90;99.90;;;;;;5094355;28;20175;-88
2022/02/01 08:46:12;;;;;;;89.55;32.15;;;5.00;99.90;;;;;;5094246;28;20203;-88
2022/02/01 08:48:38;;;;;;;79.50;28.40;;;4.90;99.90;;;;;;5094483;28;20167;-87
2022/02/01 08:51:07;;;;;;;77.27;26.37;;;4.90;99.90;;;;;;5094096;28;20193;-88
2022/02/01 08:53:46;;;;;;;90.15;34.47;;;5.00;99.90;;;;;;5094122;28;20167;-88
2022/02/01 08:59:05;;;;;;;85.60;24.95;;;5.00;99.90;;;;;;5094714;28;20150;-87
2022/02/01 09:01:31;;;;;;;79.47;26.98;;;5.10;99.90;;;;;;5095405;28;20148;-87
2022/02/01 09:03:58;;;;;;;81.53;37.17;;;5.10;99.90;;;;;;5094310;28;20684;-87
2022/02/01 09:06:24;;;;;;;82.15;36.65;;;5.10;99.90;;;;;;5093886;28;20190;-87
2022/02/01 09:08:52;;;;;;;84.30;42.10;;;5.10;99.90;;;;;;5095159;28;20167;-87
2022/02/01 09:11:18;;;;;;;87.45;44.45;;;5.20;99.90;;;;;;5096390;28;20159;-87
2022/02/01 09:13:44;;;;;;;83.57;42.77;;;5.20;99.90;;;;;;5095665;28;20189;-87
2022/02/01 09:16:10;;;;;;;83.60;46.27;;;5.20;99.90;;;;;;5095368;28;20265;-86
2022/02/01 09:18:36;;;;;;;84.43;45.13;;;5.20;99.90;;;;;;5097573;28;20194;-86
2022/02/01 09:21:02;;;;;;;84.43;50.85;;;5.30;99.90;;;;;;5095794;28;20159;-87
2022/02/01 09:23:27;;;;;;;86.63;55.47;;;5.30;99.90;;;;;;5097157;28;20163;-87
2022/02/01 09:25:53;;;;;;;99.10;76.80;;;5.40;99.90;;;;;;5102009;28;20187;-86
2022/02/01 09:28:19;;;;;;;93.73;68.13;;;5.40;99.90;;;;;;5103285;28;20212;-86
2022/02/01 09:30:47;;;;;;;110.57;99.43;;;5.50;99.90;;;;;;5097902;28;20175;-86
2022/02/01 09:33:12;;;;;;;116.20;104.30;;;5.50;99.90;;;;;;5098406;28;20397;-86
2022/02/01 09:35:41;;;;;;;113.57;102.33;;;5.60;99.90;;;;;;5095114;28;20239;-86
2022/02/01 09:38:17;;;;;;;111.53;99.80;;;5.60;99.90;;;;;;5093909;28;20194;-86
2022/02/01 09:40:49;;;;;;;103.80;92.28;;;5.50;99.90;;;;;;5095844;28;20236;-87
2022/02/01 09:43:34;;;;;;;115.90;104.28;;;5.60;99.90;;;;;;5089457;28;20262;-86
2022/02/01 09:46:01;;;;;;;123.63;111.85;;;5.60;99.90;;;;;;5094462;28;20255;-86
2022/02/01 09:49:10;;;;;;;94.88;80.65;;;5.70;99.90;;;;;;5094482;28;20177;-86
2022/02/01 09:51:57;;;;;;;93.32;79.00;;;5.70;99.90;;;;;;5091074;28;20286;-87
2022/02/01 09:54:28;;;;;;;105.72;94.35;;;5.80;99.90;;;;;;5095598;28;20181;-87
2022/02/01 09:56:57;;;;;;;102.25;91.70;;;5.90;99.90;;;;;;5094249;28;20244;-86
2022/02/01 09:59:34;;;;;;;108.05;96.10;;;5.80;99.90;;;;;;5096092;28;20193;-87
2022/02/01 10:02:13;;;;;;;93.40;80.25;;;5.80;99.90;;;;;;5095636;28;20143;-86
2022/02/01 10:04:43;;;;;;;102.30;89.22;;;5.90;99.90;;;;;;5094887;28;20186;-87
2022/02/01 10:07:20;;;;;;;107.80;96.28;;;6.00;99.90;;;;;;5096253;28;20167;-86
2022/02/01 10:10:13;;;;;;;96.15;79.65;;;6.00;99.90;;;;;;5096624;28;20186;-86
2022/02/01 10:12:54;;;;;;;96.10;78.07;;;6.10;99.90;;;;;;5094845;28;20171;-86
2022/02/01 10:15:25;;;;;;;111.20;99.93;;;6.10;99.90;;;;;;5095313;28;20733;-86
2022/02/01 10:18:04;;;;;;;89.50;72.95;;;6.20;99.90;;;;;;5098626;28;20543;-86
2022/02/01 10:20:36;;;;;;;102.82;91.25;;;6.20;99.90;;;;;;5099533;28;20637;-86
2022/02/01 10:23:16;;;;;;;100.80;89.55;;;6.20;99.90;;;;;;5097763;28;20242;-86
2022/02/01 10:25:42;;;;;;;92.57;80.45;;;6.20;99.90;;;;;;5097965;28;20178;-86
2022/02/01 10:28:21;;;;;;;96.32;85.85;;;6.30;99.90;;;;;;5096537;28;20246;-86
2022/02/01 10:30:56;;;;;;;92.85;81.60;;;6.40;99.90;;;;;;5098378;28;20151;-86
2022/02/01 10:33:59;;;;;;;93.15;78.95;;;6.40;99.90;;;;;;5098833;28;20201;-87
2022/02/01 10:36:38;;;;;;;88.97;69.50;;;6.40;99.90;;;;;;5098980;28;20209;-86
2022/02/01 10:39:21;;;;;;;88.93;67.05;;;6.40;99.90;;;;;;5102289;28;20234;-86
2022/02/01 10:42:08;;;;;;;88.38;69.88;;;6.40;99.90;;;;;;5100473;28;20224;-86
2022/02/01 10:44:39;;;;;;;95.85;78.63;;;6.40;99.90;;;;;;5097702;28;20197;-86
2022/02/01 10:47:06;;;;;;;90.00;74.50;;;6.50;99.90;;;;;;5098441;28;20163;-86
2022/02/01 10:49:34;;;;;;;87.82;69.85;;;6.50;99.90;;;;;;5095218;28;20163;-86
2022/02/01 10:52:18;;;;;;;91.53;74.20;;;6.50;99.90;;;;;;5096447;28;20179;-86
2022/02/01 10:54:44;;;;;;;108.20;97.35;;;6.60;1.00;;;;;;5095702;28;20214;-87
2022/02/01 10:57:12;;;;;;;91.53;75.50;;;6.60;1.00;;;;;;5096629;28;20679;-87
2022/02/01 10:59:42;;;;;;;94.32;75.88;;;6.60;1.00;;;;;;5095003;28;20213;-87
2022/02/01 11:02:11;;;;;;;91.60;68.00;;;6.60;1.00;;;;;;5096010;28;20167;-87
2022/02/01 11:04:46;;;;;;;97.18;81.75;;;6.70;1.00;;;;;;5095177;28;20712;-87
2022/02/01 11:07:14;;;;;;;94.40;74.78;;;6.60;1.00;;;;;;5096038;28;20567;-87
2022/02/01 11:09:40;;;;;;;90.60;73.47;;;6.60;99.90;;;;;;5095933;28;20174;-87
2022/02/01 11:12:16;;;;;;;86.93;67.97;;;6.60;99.90;;;;;;5095714;28;20163;-87
2022/02/01 11:14:47;;;;;;;95.55;79.05;;;6.60;99.90;;;;;;5094701;28;20274;-87
2022/02/01 11:17:21;;;;;;;92.38;71.22;;;6.60;99.90;;;;;;5094956;28;20194;-87
2022/02/01 11:19:59;;;;;;;84.32;53.55;;;6.70;99.90;;;;;;5093973;28;20182;-87
2022/02/01 11:22:38;;;;;;;82.85;52.63;;;6.70;99.90;;;;;;5096661;28;20258;-87
2022/02/01 11:25:39;;;;;;;77.68;38.20;;;6.70;99.90;;;;;;5094910;28;20182;-87
2022/02/01 11:30:57;;;;;;;81.95;47.20;;;6.70;99.90;;;;;;5094878;28;20159;-87
2022/02/01 11:33:44;;;;;;;85.68;63.17;;;6.70;99.90;;;;;;5085504;28;20204;-88
2022/02/01 11:36:14;;;;;;;93.28;71.88;;;6.70;99.90;;;;;;5091416;28;20628;-87
2022/02/01 11:38:55;;;;;;;84.25;56.65;;;6.80;99.90;;;;;;5075506;28;20550;-87
2022/02/01 11:41:36;;;;;;;88.50;61.85;;;6.70;99.90;;;;;;5093045;28;20555;-87
2022/02/01 11:44:21;;;;;;;83.03;50.42;;;6.80;99.90;;;;;;5093148;28;20163;-87
2022/02/01 11:47:13;;;;;;;81.93;44.75;;;6.80;99.90;;;;;;5096302;28;20703;-87
2022/02/01 11:50:15;;;;;;;89.63;56.92;;;6.80;99.90;;;;;;5097560;28;20220;-87
2022/02/01 11:53:00;;;;;;;85.85;62.88;;;6.80;99.90;;;;;;5097491;28;20205;-87
2022/02/01 11:55:30;;;;;;;85.80;55.15;;;6.80;99.90;;;;;;5099739;28;20183;-87
2022/02/01 11:58:03;;;;;;;111.97;98.60;;;6.80;99.90;;;;;;5100586;28;20210;-87
2022/02/01 12:00:42;;;;;;;88.18;67.65;;;6.80;99.90;;;;;;5100407;28;20168;-86
2022/02/01 12:03:17;;;;;;;88.22;66.03;;;6.80;99.90;;;;;;5102029;28;20162;-86
2022/02/01 12:05:53;;;;;;;97.35;83.40;;;6.80;99.90;;;;;;5103949;28;20248;-86
2022/02/01 12:08:28;;;;;;;94.22;76.88;;;6.80;99.90;;;;;;5104336;28;20143;-86
2022/02/01 12:11:07;;;;;;;83.45;55.95;;;6.80;99.90;;;;;;5102670;28;20211;-86
2022/02/01 12:13:37;;;;;;;86.07;64.18;;;6.80;99.90;;;;;;5102364;28;20171;-86
2022/02/01 12:16:10;;;;;;;88.10;67.97;;;6.80;99.90;;;;;;5101866;28;20187;-86
2022/02/01 12:19:02;;;;;;;135.93;123.57;;;6.70;99.90;;;;;;5102629;28;20183;-86
2022/02/01 12:22:02;;;;;;;85.53;58.80;;;6.70;99.90;;;;;;5101683;28;20163;-86
2022/02/01 12:24:30;;;;;;;86.82;63.38;;;6.70;99.90;;;;;;5101958;28;20163;-86
2022/02/01 12:26:59;;;;;;;110.10;98.55;;;6.70;99.90;;;;;;5101020;28;20217;-86
2022/02/01 12:29:30;;;;;;;91.10;65.93;;;6.80;99.90;;;;;;5101630;28;20316;-86
2022/02/01 12:31:56;;;;;;;82.10;52.45;;;6.80;99.90;;;;;;5099138;28;20258;-86
2022/02/01 12:34:27;;;;;;;108.30;94.60;;;6.80;99.90;;;;;;5100430;28;20195;-86
2022/02/01 12:37:06;;;;;;;136.40;123.82;;;6.90;99.90;;;;;;5099116;28;20766;-86
2022/02/01 12:39:33;;;;;;;78.30;40.00;;;6.90;99.90;;;;;;5099730;28;20191;-86
2022/02/01 12:42:42;;;;;;;89.43;60.40;;;6.90;99.90;;;;;;5099622;28;20170;-86
2022/02/01 12:48:22;;;;;;;86.90;54.17;;;7.00;99.90;;;;;;5103062;28;20162;-86
2022/02/01 12:51:03;;;;;;;73.97;29.23;;;7.00;99.90;;;;;;5100837;28;20661;-86
2022/02/01 12:53:39;;;;;;;118.63;106.82;;;7.00;99.90;;;;;;5101338;28;20179;-86
2022/02/01 12:56:17;;;;;;;80.90;42.75;;;7.00;99.90;;;;;;5100670;28;20309;-86
2022/02/01 12:59:15;;;;;;;79.43;39.08;;;7.00;99.90;;;;;;5102053;28;20662;-86
2022/02/01 13:01:41;;;;;;;76.90;34.95;;;7.00;99.90;;;;;;5057500;28;20179;-86
2022/02/01 13:04:07;;;;;;;77.47;35.50;;;7.00;99.90;;;;;;5100172;28;20212;-86
2022/02/01 13:06:43;;;;;;;75.57;31.10;;;7.10;99.90;;;;;;5100663;28;20409;-85
2022/02/01 13:14:46;;;;;;;76.72;34.75;;;7.10;99.90;;;;;;5101200;28;20189;-85
2022/02/01 13:17:38;;;;;;;85.93;50.85;;;7.20;99.90;;;;;;5102365;28;20212;-86
2022/02/01 13:20:20;;;;;;;76.32;29.17;;;7.20;99.90;;;;;;5100349;28;20534;-86
2022/02/01 13:23:07;;;;;;;94.53;73.07;;;7.20;99.90;;;;;;5098715;28;20661;-85
2022/02/01 13:25:53;;;;;;;83.90;48.95;;;7.20;99.90;;;;;;5101348;28;20180;-86
2022/02/01 13:28:26;;;;;;;78.93;41.75;;;7.20;99.90;;;;;;5101557;28;20676;-85
2022/02/01 13:31:07;;;;;;;90.18;60.97;;;7.20;99.90;;;;;;5100303;28;20622;-86
2022/02/01 13:33:45;;;;;;;119.82;106.20;;;7.20;99.90;;;;;;5100458;28;20647;-86
2022/02/01 13:36:11;;;;;;;79.65;45.58;;;7.20;99.90;;;;;;5099506;28;20191;-86
2022/02/01 13:38:58;;;;;;;80.32;39.78;;;7.30;99.90;;;;;;5098598;28;20183;-85
2022/02/01 13:41:26;;;;;;;93.03;67.60;;;7.40;99.90;;;;;;5099330;28;20163;-86
2022/02/01 13:43:58;;;;;;;90.18;65.00;;;7.50;99.90;;;;;;5101326;28;20168;-86
2022/02/01 13:46:34;;;;;;;87.15;51.80;;;7.50;99.90;;;;;;5099216;28;20197;-86
2022/02/01 13:49:08;;;;;;;76.38;33.30;;;7.50;99.90;;;;;;5099467;28;20640;-86
2022/02/01 13:52:25;;;;;;;76.45;32.15;;;7.50;99.90;;;;;;5181110;22;20273;-88
2022/02/01 13:54:56;;;;;;;93.85;64.25;;;7.50;99.90;;;;;;4982264;28;20245;-87
2022/02/01 13:57:36;;;;;;;75.38;30.90;;;7.50;99.90;;;;;;5075764;28;20234;-87
2022/02/01 14:00:22;;;;;;;86.97;49.60;;;7.60;99.90;;;;;;5062792;28;20164;-88
2022/02/01 14:03:22;;;;;;;78.28;38.85;;;7.60;99.90;;;;;;5063154;28;20156;-88
2022/02/01 14:06:38;;;;;;;;;;;;;;;;;;;;;
2022/02/01 14:35:20;;;;;;;74.25;28.10;;;7.80;99.90;;;;;;5096760;22;20218;-87
2022/02/01 14:38:39;;;;;;;86.43;51.05;;;7.70;99.90;;;;;;5102364;28;20182;-87
2022/02/01 14:47:00;;;;;;;;;;;;;;;;;;;;;
2022/02/01 14:49:27;;;;;;;79.25;39.75;;;7.70;99.90;;;;;;5079048;28;20219;-88
2022/02/01 14:52:17;;;;;;;76.70;34.53;;;7.70;99.90;;;;;;5079444;28;20167;-87
2022/02/01 14:55:05;;;;;;;76.55;34.40;;;7.80;99.90;;;;;;5079317;28;20685;-87
2022/02/01 15:15:39;;;;;;;87.57;49.25;;;7.70;99.90;;;;;;5077643;28;20203;-87
2022/02/01 15:18:19;;;;;;;88.88;49.80;;;7.70;99.90;;;;;;5078031;28;20650;-87
2022/02/01 15:21:12;;;;;;;124.38;111.38;;;7.80;99.90;;;;;;5063655;28;20174;-86
2022/02/01 15:23:37;;;;;;;93.53;57.70;;;7.80;99.90;;;;;;5039350;28;20196;-87
2022/02/01 15:26:04;;;;;;;81.97;38.33;;;7.80;99.90;;;;;;5039029;28;20192;-87
2022/02/01 15:28:47;;;;;;;81.93;30.25;;;7.80;99.90;;;;;;5063272;28;20409;-87
2022/02/01 15:31:15;;;;;;;78.93;31.05;;;7.80;99.90;;;;;;5063875;28;20191;-87
2022/02/01 15:33:45;;;;;;;86.38;38.80;;;7.90;99.90;;;;;;5080135;28;20264;-87
2022/02/01 15:36:13;;;;;;;89.32;48.05;;;7.90;99.90;;;;;;5079391;28;20233;-86
2022/02/01 15:57:00;;;;;;;165.35;145.95;;;8.10;99.90;;;;;;5079912;28;20212;-87
2022/02/01 15:59:38;;;;;;;98.28;56.08;;;8.10;99.90;;;;;;5061593;28;20156;-87
2022/02/01 16:02:14;;;;;;;92.30;55.20;;;8.10;99.90;;;;;;5061143;28;20203;-85
2022/02/01 16:04:52;;;;;;;95.00;54.25;;;8.10;99.90;;;;;;5078279;28;20726;-86
2022/02/01 16:07:52;;;;;;;107.97;76.40;;;8.10;99.90;;;;;;5061429;28;20164;-85
2022/02/01 16:10:36;;;;;;;126.07;112.20;;;8.20;99.90;;;;;;5061058;28;20168;-86